createdAt,value
2023-03-31T00:00:13.390Z,3.28
2023-03-31T00:03:10.618Z,3.30
2023-03-31T00:05:48.672Z,3.80
2023-03-31T00:08:23.603Z,3.30
2023-03-31T00:10:55.412Z,2.85
2023-03-31T00:13:27.434Z,2.75
2023-03-31T00:16:07.493Z,3.65
2023-03-31T00:18:41.338Z,2.83
2023-03-31T00:21:25.232Z,2.85
2023-03-31T00:24:00.930Z,2.72
2023-03-31T00:26:32.814Z,3.22
2023-03-31T00:29:05.231Z,3.25
2023-03-31T00:31:40.080Z,3.55
2023-03-31T00:34:12.376Z,2.80
2023-03-31T00:36:47.921Z,3.40
2023-03-31T00:39:22.288Z,3.10
2023-03-31T00:41:54.410Z,2.90
2023-03-31T00:44:30.213Z,3.20
2023-03-31T00:47:08.343Z,2.80
2023-03-31T00:49:45.638Z,2.88
2023-03-31T00:52:21.170Z,2.83
2023-03-31T00:54:59.132Z,2.63
2023-03-31T00:57:42.387Z,3.38
2023-03-31T01:01:19.461Z,2.65
2023-03-31T01:04:25.697Z,3.05
2023-03-31T01:07:04.822Z,2.67
2023-03-31T01:09:39.356Z,2.80
2023-03-31T01:12:32.250Z,2.42
2023-03-31T01:15:13.052Z,2.97
2023-03-31T01:17:47.826Z,2.50
2023-03-31T01:20:34.684Z,2.75
2023-03-31T01:23:42.506Z,2.85
2023-03-31T01:26:39.799Z,2.50
2023-03-31T01:29:28.052Z,2.60
2023-03-31T01:32:23.118Z,2.40
2023-03-31T01:35:20.108Z,2.22
2023-03-31T01:38:18.422Z,2.28
2023-03-31T01:41:08.229Z,2.40
2023-03-31T01:43:47.601Z,2.20
2023-03-31T01:46:30.716Z,2.50
2023-03-31T01:49:15.706Z,2.22
2023-03-31T01:51:54.070Z,2.10
2023-03-31T01:54:33.882Z,2.10
2023-03-31T01:57:27.692Z,2.30
2023-03-31T02:00:28.504Z,2.10
2023-03-31T02:03:22.185Z,2.38
2023-03-31T02:06:20.725Z,2.05
2023-03-31T02:08:59.626Z,2.22
2023-03-31T02:11:34.090Z,2.00
2023-03-31T02:14:12.082Z,1.80
2023-03-31T02:16:48.154Z,2.20
2023-03-31T02:19:23.814Z,1.90
2023-03-31T02:22:13.572Z,2.45
2023-03-31T02:24:52.683Z,1.95
2023-03-31T02:27:28.875Z,2.25
2023-03-31T02:30:04.400Z,2.20
2023-03-31T02:32:41.119Z,2.40
2023-03-31T02:35:18.338Z,1.95
2023-03-31T02:38:17.310Z,2.10
2023-03-31T02:41:00.591Z,2.25
2023-03-31T02:43:32.292Z,2.53
2023-03-31T02:46:07.228Z,2.20
2023-03-31T02:48:41.412Z,2.08
2023-03-31T02:55:24.994Z,2.58
2023-03-31T02:58:27.642Z,2.00
2023-03-31T03:01:24.409Z,2.13
2023-03-31T03:04:09.860Z,1.92
2023-03-31T03:06:54.090Z,1.65
2023-03-31T03:09:37.883Z,1.95
2023-03-31T03:12:17.553Z,2.13
2023-03-31T03:14:57.294Z,2.33
2023-03-31T03:17:36.561Z,1.90
2023-03-31T03:20:51.398Z,1.88
2023-03-31T03:23:24.453Z,1.70
2023-03-31T03:25:57.971Z,1.77
2023-03-31T03:28:53.331Z,1.90
2023-03-31T03:31:57.707Z,1.90
2023-03-31T03:34:32.330Z,2.08
2023-03-31T03:37:04.365Z,2.00
2023-03-31T03:39:36.287Z,1.95
2023-03-31T03:42:09.406Z,1.83
2023-03-31T03:44:40.824Z,1.90
2023-03-31T03:47:13.065Z,1.80
2023-03-31T03:49:50.042Z,1.95
2023-03-31T03:52:22.405Z,1.75
2023-03-31T03:54:56.175Z,1.70
2023-03-31T03:57:33.624Z,1.80
2023-03-31T04:00:30.440Z,1.90
2023-03-31T04:03:05.263Z,2.00
2023-03-31T04:05:40.551Z,2.17
2023-03-31T04:08:14.129Z,2.10
2023-03-31T04:10:52.767Z,2.35
2023-03-31T04:13:26.434Z,2.17
2023-03-31T04:15:59.638Z,2.28
2023-03-31T04:18:34.351Z,2.00
2023-03-31T04:21:12.958Z,1.90
2023-03-31T04:23:47.057Z,1.95
2023-03-31T04:26:27.016Z,2.00
2023-03-31T04:29:00.751Z,1.88
2023-03-31T04:31:32.565Z,2.22
2023-03-31T04:34:07.154Z,2.00
2023-03-31T04:36:43.021Z,2.17
2023-03-31T04:39:14.978Z,2.03
2023-03-31T04:41:46.918Z,2.20
2023-03-31T04:44:19.187Z,2.05
2023-03-31T04:47:07.289Z,2.00
2023-03-31T04:49:41.396Z,1.80
2023-03-31T04:52:15.667Z,2.33
2023-03-31T04:54:47.673Z,2.35
2023-03-31T04:57:19.356Z,2.15
2023-03-31T04:59:51.638Z,2.20
2023-03-31T05:02:25.706Z,1.85
2023-03-31T05:05:00.651Z,1.83
2023-03-31T05:07:41.690Z,1.95
2023-03-31T05:10:14.484Z,2.13
2023-03-31T05:12:46.219Z,2.05
2023-03-31T05:15:18.257Z,2.03
2023-03-31T05:18:08.329Z,2.28
2023-03-31T05:20:43.414Z,2.10
2023-03-31T05:23:23.276Z,2.40
2023-03-31T05:25:59.149Z,2.28
2023-03-31T05:28:32.672Z,2.13
2023-03-31T05:31:05.918Z,2.30
2023-03-31T05:33:40.646Z,2.17
2023-03-31T05:36:15.561Z,2.35
2023-03-31T05:38:50.388Z,2.10
2023-03-31T05:41:23.025Z,2.42
2023-03-31T05:43:55.327Z,2.38
2023-03-31T05:46:28.192Z,2.78
2023-03-31T05:49:03.285Z,2.47
2023-03-31T05:51:36.328Z,2.20
2023-03-31T05:54:11.388Z,2.10
2023-03-31T05:56:43.826Z,2.50
2023-03-31T05:59:15.677Z,2.40
2023-03-31T06:01:48.050Z,2.28
2023-03-31T06:04:22.939Z,2.10
2023-03-31T06:06:56.405Z,2.45
2023-03-31T06:09:30.986Z,3.58
2023-03-31T06:12:03.529Z,2.33
2023-03-31T06:14:38.506Z,2.50
2023-03-31T06:17:11.176Z,3.05
2023-03-31T06:19:43.420Z,2.78
2023-03-31T06:22:15.691Z,2.30
2023-03-31T06:24:54.934Z,2.92
2023-03-31T06:27:27.261Z,2.58
2023-03-31T06:29:58.924Z,2.60
2023-03-31T06:32:31.136Z,2.75
2023-03-31T06:35:03.022Z,3.20
2023-03-31T06:37:35.293Z,2.50
2023-03-31T06:40:11.385Z,2.58
2023-03-31T06:42:43.762Z,2.97
2023-03-31T06:45:15.681Z,3.50
2023-03-31T06:47:48.202Z,2.72
2023-03-31T06:50:20.342Z,3.00
2023-03-31T06:52:55.540Z,2.88
2023-03-31T06:55:30.224Z,2.72
2023-03-31T06:58:02.441Z,2.90
2023-03-31T07:00:34.387Z,2.88
2023-03-31T07:03:09.927Z,2.50
2023-03-31T07:05:42.072Z,3.10
2023-03-31T07:08:14.389Z,2.80
2023-03-31T07:10:49.905Z,3.33
2023-03-31T07:13:22.400Z,2.63
2023-03-31T07:15:55.010Z,2.70
2023-03-31T07:18:34.841Z,2.28
2023-03-31T07:21:10.074Z,2.30
2023-03-31T07:23:42.826Z,2.83
2023-03-31T07:26:17.606Z,2.53
2023-03-31T07:28:49.841Z,2.63
2023-03-31T07:31:21.689Z,2.65
2023-03-31T07:33:53.944Z,2.70
2023-03-31T07:36:25.809Z,2.35
2023-03-31T07:38:58.271Z,2.10
2023-03-31T07:41:32.659Z,1.88
2023-03-31T07:44:05.001Z,2.47
2023-03-31T07:46:37.046Z,2.72
2023-03-31T07:49:10.838Z,2.28
2023-03-31T07:51:42.625Z,2.50
2023-03-31T07:54:15.261Z,2.03
2023-03-31T07:56:50.198Z,2.25
2023-03-31T07:59:22.476Z,1.90
2023-03-31T08:01:54.385Z,2.22
2023-03-31T08:04:26.758Z,2.03
2023-03-31T08:06:58.506Z,2.20
2023-03-31T08:09:31.185Z,2.03
2023-03-31T08:12:05.683Z,2.00
2023-03-31T08:14:41.137Z,2.10
2023-03-31T08:17:13.835Z,2.30
2023-03-31T08:19:46.013Z,2.30
2023-03-31T08:22:18.165Z,2.22
2023-03-31T08:24:51.113Z,2.20
2023-03-31T08:27:26.518Z,2.10
2023-03-31T08:30:03.579Z,2.10
2023-03-31T08:32:36.175Z,2.20
2023-03-31T08:35:10.114Z,2.08
2023-03-31T08:37:42.103Z,2.22
2023-03-31T08:40:22.671Z,1.98
2023-03-31T08:43:01.568Z,2.10
2023-03-31T08:45:37.661Z,2.20
2023-03-31T08:48:14.967Z,2.30
2023-03-31T08:50:54.153Z,2.20
2023-03-31T08:53:29.677Z,2.00
2023-03-31T08:56:04.419Z,1.90
2023-03-31T08:58:44.673Z,2.17
2023-03-31T09:01:52.309Z,1.98
2023-03-31T09:05:02.099Z,2.08
2023-03-31T09:07:44.166Z,2.35
2023-03-31T09:10:31.048Z,1.95
2023-03-31T09:13:13.710Z,2.38
2023-03-31T09:15:57.339Z,2.00
2023-03-31T09:18:36.039Z,2.30
2023-03-31T09:21:15.795Z,2.28
2023-03-31T09:23:52.210Z,2.20
2023-03-31T09:26:30.569Z,1.75
2023-03-31T09:29:05.486Z,1.63
2023-03-31T09:31:42.210Z,2.00
2023-03-31T09:34:18.979Z,2.08
2023-03-31T09:36:51.183Z,2.20
2023-03-31T09:39:23.636Z,2.28
2023-03-31T09:41:57.004Z,1.88
2023-03-31T09:44:37.768Z,1.60
2023-03-31T09:47:19.945Z,2.10
2023-03-31T09:49:54.172Z,1.83
2023-03-31T09:52:32.906Z,1.65
2023-03-31T09:55:07.327Z,1.80
2023-03-31T09:57:55.824Z,2.00
2023-03-31T10:00:31.993Z,2.05
2023-03-31T10:03:16.511Z,1.80
2023-03-31T10:05:59.396Z,2.05
2023-03-31T10:08:37.157Z,1.70
2023-03-31T10:11:15.553Z,2.00
2023-03-31T10:13:59.355Z,1.77
2023-03-31T10:16:34.554Z,2.00
2023-03-31T10:19:25.188Z,1.90
2023-03-31T10:22:02.473Z,2.00
2023-03-31T10:24:42.423Z,1.80
2023-03-31T10:27:25.107Z,2.20
2023-03-31T10:29:59.763Z,2.20
2023-03-31T10:32:35.879Z,2.80
2023-03-31T10:35:25.879Z,2.30
2023-03-31T10:38:02.518Z,2.22
2023-03-31T10:40:38.596Z,2.10
2023-03-31T10:43:19.365Z,2.03
2023-03-31T10:45:55.221Z,2.40
2023-03-31T10:48:34.187Z,2.63
2023-03-31T10:51:19.065Z,2.42
2023-03-31T10:53:59.629Z,2.35
2023-03-31T10:56:43.100Z,2.63
2023-03-31T10:59:27.618Z,2.60
2023-03-31T11:02:22.529Z,2.97
2023-03-31T11:05:07.154Z,2.80
2023-03-31T11:07:54.219Z,2.40
2023-03-31T11:10:46.825Z,2.28
2023-03-31T11:13:29.200Z,2.20
2023-03-31T11:16:11.823Z,2.83
2023-03-31T11:19:05.382Z,2.70
2023-03-31T11:21:49.417Z,2.72
2023-03-31T11:24:38.422Z,2.40
2023-03-31T11:27:28.866Z,2.17
2023-03-31T11:30:09.707Z,2.38
2023-03-31T11:33:05.284Z,2.00
2023-03-31T11:35:54.883Z,2.30
2023-03-31T11:38:48.462Z,2.00
2023-03-31T11:41:30.435Z,2.00
2023-03-31T11:44:06.569Z,1.98
2023-03-31T11:46:47.317Z,1.80
2023-03-31T11:49:26.440Z,2.00
2023-03-31T11:52:01.701Z,2.22
2023-03-31T11:54:38.902Z,2.28
2023-03-31T11:57:23.692Z,2.30
2023-03-31T12:00:02.669Z,2.50
2023-03-31T12:02:45.591Z,2.50
2023-03-31T12:05:21.355Z,2.78
2023-03-31T12:08:06.910Z,3.42
2023-03-31T12:10:45.265Z,3.05
2023-03-31T12:13:44.155Z,3.38
2023-03-31T12:16:21.724Z,3.58
2023-03-31T12:19:06.384Z,3.47
2023-03-31T12:21:44.110Z,4.80
2023-03-31T12:24:17.711Z,3.40
2023-03-31T12:27:00.265Z,3.22
2023-03-31T12:29:41.829Z,3.60
2023-03-31T12:32:20.527Z,3.00
2023-03-31T12:35:00.668Z,2.60
2023-03-31T12:38:02.475Z,3.08
2023-03-31T12:40:46.662Z,2.10
2023-03-31T12:43:46.344Z,2.28
2023-03-31T12:46:36.769Z,2.60
2023-03-31T12:49:19.945Z,2.70
2023-03-31T12:52:06.588Z,2.30
2023-03-31T12:55:05.431Z,1.80
2023-03-31T12:57:46.468Z,2.10
2023-03-31T13:00:33.461Z,2.35
2023-03-31T13:03:38.463Z,2.15
2023-03-31T13:06:15.628Z,2.60
2023-03-31T13:09:01.553Z,3.05
2023-03-31T13:11:48.368Z,3.08
2023-03-31T13:14:58.804Z,3.70
2023-03-31T13:18:32.351Z,4.70
2023-03-31T13:21:17.945Z,5.68
2023-03-31T13:23:51.393Z,5.97
2023-03-31T13:26:42.785Z,5.68
2023-03-31T13:29:26.266Z,6.28
2023-03-31T13:32:26.698Z,6.47
2023-03-31T13:35:06.908Z,6.07
2023-03-31T13:42:02.268Z,6.72
2023-03-31T13:45:03.939Z,6.47
2023-03-31T13:48:04.236Z,5.60
2023-03-31T13:50:56.911Z,6.10
2023-03-31T13:53:54.944Z,5.78
2023-03-31T13:56:55.570Z,6.68
2023-03-31T13:59:48.658Z,5.35
2023-03-31T14:02:51.256Z,4.13
2023-03-31T14:05:36.738Z,4.22
2023-03-31T14:08:15.188Z,4.65
2023-03-31T14:10:53.913Z,2.60
2023-03-31T14:13:30.740Z,2.20
2023-03-31T14:16:04.069Z,2.45
2023-03-31T14:18:41.385Z,2.60
2023-03-31T14:21:25.027Z,2.00
2023-03-31T14:24:07.665Z,1.70
2023-03-31T14:26:58.262Z,1.60
2023-03-31T14:29:39.827Z,1.70
2023-03-31T14:32:24.437Z,1.45
2023-03-31T14:35:07.455Z,1.40
2023-03-31T14:37:40.475Z,1.30
2023-03-31T14:40:18.511Z,1.40
2023-03-31T14:43:08.406Z,1.33
2023-03-31T14:46:06.102Z,1.52
2023-03-31T14:48:48.561Z,1.80
2023-03-31T14:51:33.197Z,1.45
2023-03-31T14:54:06.264Z,1.60
2023-03-31T14:56:45.276Z,1.83
2023-03-31T14:59:24.638Z,2.00
2023-03-31T15:01:56.959Z,1.73
2023-03-31T15:04:53.392Z,1.88
2023-03-31T15:07:28.336Z,1.90
2023-03-31T15:10:00.907Z,1.80
2023-03-31T15:12:33.742Z,2.20
2023-03-31T15:15:10.947Z,2.30
2023-03-31T15:17:44.713Z,2.00
2023-03-31T15:20:42.142Z,1.85
2023-03-31T15:26:28.051Z,1.98
2023-03-31T15:29:12.302Z,1.80
2023-03-31T15:31:48.599Z,2.10
2023-03-31T15:34:27.991Z,1.80
2023-03-31T15:37:02.127Z,1.77
2023-03-31T15:39:35.994Z,2.30
2023-03-31T15:42:11.674Z,2.45
2023-03-31T15:45:10.006Z,2.47
2023-03-31T15:47:55.027Z,2.53
2023-03-31T15:50:28.364Z,3.15
2023-03-31T15:53:01.873Z,2.83
2023-03-31T15:55:36.276Z,2.38
2023-03-31T15:58:09.918Z,2.20
2023-03-31T16:00:47.985Z,2.58
2023-03-31T16:03:35.716Z,2.15
2023-03-31T16:06:13.002Z,2.30
2023-03-31T16:08:49.679Z,2.45
2023-03-31T16:11:25.758Z,2.10
2023-03-31T16:14:02.477Z,2.40
2023-03-31T16:16:35.400Z,2.47
2023-03-31T16:19:15.021Z,2.58
2023-03-31T16:21:53.223Z,4.70
2023-03-31T16:24:33.826Z,4.22
2023-03-31T16:27:18.605Z,3.38
2023-03-31T16:29:50.961Z,3.80
2023-03-31T16:32:25.286Z,3.17
2023-03-31T16:35:03.466Z,2.28
2023-03-31T16:37:35.578Z,2.55
2023-03-31T16:40:10.303Z,2.22
2023-03-31T16:42:42.519Z,2.28
2023-03-31T16:45:35.301Z,2.33
2023-03-31T16:48:15.556Z,2.42
2023-03-31T16:50:54.909Z,2.10
2023-03-31T16:53:29.628Z,2.10
2023-03-31T16:56:02.232Z,2.28
2023-03-31T16:58:34.911Z,2.10
2023-03-31T17:01:09.663Z,2.13
2023-03-31T17:03:43.409Z,2.22
2023-03-31T17:06:19.052Z,2.45
2023-03-31T17:08:52.293Z,2.40
2023-03-31T17:11:27.050Z,2.40
2023-03-31T17:14:00.567Z,2.20
2023-03-31T17:16:45.056Z,2.05
2023-03-31T17:19:21.072Z,2.05
2023-03-31T17:21:56.725Z,2.50
2023-03-31T17:24:29.429Z,2.53
2023-03-31T17:27:01.989Z,2.55
2023-03-31T17:29:33.948Z,2.83
2023-03-31T17:32:06.615Z,2.65
2023-03-31T17:34:38.848Z,2.88
2023-03-31T17:37:15.110Z,3.40
2023-03-31T17:39:47.642Z,3.25
2023-03-31T17:42:20.738Z,4.10
2023-03-31T17:44:53.968Z,4.28
2023-03-31T17:47:26.431Z,3.00
2023-03-31T17:49:58.377Z,2.90
2023-03-31T17:52:33.854Z,2.72
2023-03-31T17:55:06.528Z,2.90
2023-03-31T17:57:41.226Z,2.67
2023-03-31T18:00:16.520Z,2.58
2023-03-31T18:02:53.218Z,3.10
2023-03-31T18:05:25.966Z,3.55
2023-03-31T18:08:04.705Z,3.10
2023-03-31T18:10:40.552Z,3.33
2023-03-31T18:13:13.872Z,3.30
2023-03-31T18:15:53.144Z,3.95
2023-03-31T18:18:28.792Z,4.35
2023-03-31T18:21:08.175Z,3.80
2023-03-31T18:23:44.420Z,3.78
2023-03-31T18:26:17.365Z,4.28
2023-03-31T18:28:50.183Z,3.60
2023-03-31T18:31:25.343Z,3.70
2023-03-31T18:33:58.207Z,4.30
2023-03-31T18:36:32.112Z,4.15
2023-03-31T18:39:08.524Z,3.95
2023-03-31T18:41:43.606Z,4.35
2023-03-31T18:44:18.753Z,4.30
2023-03-31T18:50:18.219Z,4.63
2023-03-31T18:52:52.162Z,5.10
2023-03-31T18:55:29.588Z,4.80
2023-03-31T18:58:01.816Z,4.72
2023-03-31T19:00:34.334Z,4.90
2023-03-31T19:03:07.340Z,5.35
2023-03-31T19:05:40.086Z,4.95
2023-03-31T19:08:12.489Z,6.05
2023-03-31T19:10:47.722Z,6.22
2023-03-31T19:13:20.009Z,5.40
2023-03-31T19:15:52.514Z,5.68
2023-03-31T19:18:26.427Z,6.75
2023-03-31T19:21:00.275Z,7.13
2023-03-31T19:23:33.542Z,6.80
2023-03-31T19:26:09.611Z,6.22
2023-03-31T19:28:42.414Z,5.80
2023-03-31T19:31:15.764Z,6.07
2023-03-31T19:33:48.474Z,6.30
2023-03-31T19:36:21.116Z,7.30
2023-03-31T19:38:53.660Z,7.10
2023-03-31T19:41:29.153Z,7.55
2023-03-31T19:44:01.215Z,8.32
2023-03-31T19:46:33.645Z,8.02
2023-03-31T19:49:05.901Z,7.38
2023-03-31T19:51:38.459Z,7.38
2023-03-31T19:54:10.428Z,7.40
2023-03-31T19:56:45.660Z,7.50
2023-03-31T19:59:18.149Z,7.38
2023-03-31T20:01:50.537Z,6.97
2023-03-31T20:04:24.915Z,6.72
2023-03-31T20:06:57.369Z,6.60
2023-03-31T20:09:29.461Z,6.82
2023-03-31T20:12:04.697Z,6.22
2023-03-31T20:14:36.730Z,6.57
2023-03-31T20:17:10.568Z,6.55
2023-03-31T20:19:43.067Z,7.38
2023-03-31T20:22:15.587Z,7.45
2023-03-31T20:24:47.752Z,7.45
2023-03-31T20:27:26.712Z,7.88
2023-03-31T20:29:58.602Z,7.70
2023-03-31T20:32:31.175Z,7.60
2023-03-31T20:35:03.485Z,7.90
2023-03-31T20:37:35.926Z,8.35
2023-03-31T20:40:08.217Z,7.90
2023-03-31T20:42:43.686Z,8.10
2023-03-31T20:45:15.435Z,8.55
2023-03-31T20:47:47.679Z,8.07
2023-03-31T20:50:22.635Z,8.18
2023-03-31T20:52:55.133Z,8.85
2023-03-31T20:56:25.020Z,8.82
2023-03-31T20:59:00.949Z,9.27
2023-03-31T21:01:34.787Z,9.43
2023-03-31T21:04:10.121Z,8.60
2023-03-31T21:06:43.598Z,9.88
2023-03-31T21:09:16.567Z,8.98
2023-03-31T21:11:48.651Z,9.35
2023-03-31T21:14:23.389Z,9.23
2023-03-31T21:16:55.301Z,9.70
2023-03-31T21:19:27.599Z,7.72
2023-03-31T21:21:59.371Z,7.97
2023-03-31T21:24:31.538Z,7.70
2023-03-31T21:27:03.453Z,6.30
2023-03-31T21:29:38.381Z,6.30
2023-03-31T21:32:10.182Z,7.00
2023-03-31T21:34:42.400Z,6.35
2023-03-31T21:37:14.258Z,7.22
2023-03-31T21:39:46.844Z,6.20
2023-03-31T21:42:18.915Z,5.93
2023-03-31T21:44:59.138Z,5.35
2023-03-31T21:47:31.656Z,5.60
2023-03-31T21:50:04.291Z,5.65
2023-03-31T21:52:36.773Z,5.20
2023-03-31T21:55:09.734Z,5.43
2023-03-31T22:00:56.078Z,4.80
2023-03-31T22:03:29.281Z,4.43
2023-03-31T22:06:01.700Z,5.00
2023-03-31T22:08:34.670Z,4.72
2023-03-31T22:11:08.028Z,4.53
2023-03-31T22:13:41.059Z,4.60
2023-03-31T22:16:22.119Z,5.00
2023-03-31T22:18:54.544Z,4.70
2023-03-31T22:21:28.079Z,5.82
2023-03-31T22:24:02.086Z,5.50
2023-03-31T22:26:34.598Z,4.85
2023-03-31T22:29:06.865Z,5.35
2023-03-31T22:31:41.547Z,5.32
2023-03-31T22:34:13.848Z,6.82
2023-03-31T22:36:45.714Z,5.50
2023-03-31T22:39:17.975Z,5.20
2023-03-31T22:41:51.919Z,5.72
2023-03-31T22:44:24.259Z,5.57
2023-03-31T22:46:58.689Z,4.20
2023-03-31T22:49:30.772Z,4.90
2023-03-31T22:52:02.451Z,4.53
2023-03-31T22:54:34.580Z,4.82
2023-03-31T22:57:06.326Z,4.65
2023-03-31T22:59:39.471Z,4.55
2023-03-31T23:02:14.077Z,4.57
2023-03-31T23:04:46.176Z,4.65
2023-03-31T23:07:22.154Z,4.53
2023-03-31T23:09:54.262Z,4.53
2023-03-31T23:12:29.094Z,4.22
2023-03-31T23:15:01.563Z,4.32
2023-03-31T23:17:36.949Z,4.65
2023-03-31T23:20:10.529Z,4.05
2023-03-31T23:22:42.280Z,4.20
2023-03-31T23:25:14.378Z,4.32
2023-03-31T23:27:46.193Z,4.30
2023-03-31T23:30:19.381Z,3.65
2023-03-31T23:32:55.200Z,3.90
2023-03-31T23:35:27.737Z,4.10
2023-03-31T23:37:59.497Z,4.38
2023-03-31T23:40:31.666Z,4.68
2023-03-31T23:43:03.448Z,3.53
2023-03-31T23:45:35.668Z,4.25
2023-03-31T23:48:10.262Z,3.65
2023-03-31T23:50:42.450Z,3.92
2023-03-31T23:53:14.637Z,3.92
2023-03-31T23:55:47.153Z,3.85
2023-03-31T23:58:36.748Z,3.70
